sensor_id;sensor_type;location;lat;lon;timestamp;P1;durP1;ratioP1;P2;durP2;ratioP2
10303;SDS011;5197;48.152;8.590;2023-07-20T00:01:51;2.93;;;2.00;;
10303;SDS011;5197;48.152;8.590;2023-07-20T00:04:18;3.17;;;2.20;;
10303;SDS011;5197;48.152;8.590;2023-07-20T00:06:45;2.60;;;2.10;;
10303;SDS011;5197;48.152;8.590;2023-07-20T00:09:12;4.17;;;2.43;;
10303;SDS011;5197;48.152;8.590;2023-07-20T00:11:39;3.60;;;2.20;;
10303;SDS011;5197;48.152;8.590;2023-07-20T00:14:06;7.53;;;2.60;;
10303;SDS011;5197;48.152;8.590;2023-07-20T00:16:33;6.43;;;2.60;;
10303;SDS011;5197;48.152;8.590;2023-07-20T00:19:00;2.93;;;2.40;;
10303;SDS011;5197;48.152;8.590;2023-07-20T00:21:27;2.63;;;2.30;;
10303;SDS011;5197;48.152;8.590;2023-07-20T00:23:54;3.53;;;2.30;;
10303;SDS011;5197;48.152;8.590;2023-07-20T00:26:20;7.53;;;2.40;;
10303;SDS011;5197;48.152;8.590;2023-07-20T00:28:49;2.60;;;2.40;;
10303;SDS011;5197;48.152;8.590;2023-07-20T00:31:17;3.33;;;2.30;;
10303;SDS011;5197;48.152;8.590;2023-07-20T00:33:45;2.73;;;2.33;;
10303;SDS011;5197;48.152;8.590;2023-07-20T00:36:11;5.30;;;2.47;;
10303;SDS011;5197;48.152;8.590;2023-07-20T00:38:38;3.57;;;2.70;;
10303;SDS011;5197;48.152;8.590;2023-07-20T00:41:05;3.30;;;2.47;;
10303;SDS011;5197;48.152;8.590;2023-07-20T00:43:32;5.63;;;2.97;;
10303;SDS011;5197;48.152;8.590;2023-07-20T00:45:59;6.90;;;2.73;;
10303;SDS011;5197;48.152;8.590;2023-07-20T00:48:26;4.80;;;2.57;;
10303;SDS011;5197;48.152;8.590;2023-07-20T00:50:53;5.07;;;2.40;;
10303;SDS011;5197;48.152;8.590;2023-07-20T00:53:20;2.50;;;2.30;;
10303;SDS011;5197;48.152;8.590;2023-07-20T00:55:47;3.43;;;2.33;;
10303;SDS011;5197;48.152;8.590;2023-07-20T00:58:15;2.70;;;2.50;;
10303;SDS011;5197;48.152;8.590;2023-07-20T01:00:41;5.40;;;3.03;;
10303;SDS011;5197;48.152;8.590;2023-07-20T01:03:08;3.37;;;2.20;;
10303;SDS011;5197;48.152;8.590;2023-07-20T01:05:42;3.97;;;2.40;;
10303;SDS011;5197;48.152;8.590;2023-07-20T01:08:33;2.83;;;2.57;;
10303;SDS011;5197;48.152;8.590;2023-07-20T01:11:23;3.20;;;2.50;;
10303;SDS011;5197;48.152;8.590;2023-07-20T01:14:02;2.63;;;2.43;;
10303;SDS011;5197;48.152;8.590;2023-07-20T01:16:30;3.80;;;2.70;;
10303;SDS011;5197;48.152;8.590;2023-07-20T01:18:56;4.00;;;2.70;;
10303;SDS011;5197;48.152;8.590;2023-07-20T01:21:34;5.40;;;2.60;;
10303;SDS011;5197;48.152;8.590;2023-07-20T01:27:25;5.20;;;3.43;;
10303;SDS011;5197;48.152;8.590;2023-07-20T01:33:17;3.93;;;2.60;;
10303;SDS011;5197;48.152;8.590;2023-07-20T01:35:46;4.03;;;2.50;;
10303;SDS011;5197;48.152;8.590;2023-07-20T01:38:17;2.90;;;2.67;;
10303;SDS011;5197;48.152;8.590;2023-07-20T01:40:45;3.03;;;2.70;;
10303;SDS011;5197;48.152;8.590;2023-07-20T01:43:12;3.33;;;2.97;;
10303;SDS011;5197;48.152;8.590;2023-07-20T01:45:39;3.47;;;2.70;;
10303;SDS011;5197;48.152;8.590;2023-07-20T01:48:06;6.27;;;2.63;;
10303;SDS011;5197;48.152;8.590;2023-07-20T01:50:33;4.57;;;2.90;;
10303;SDS011;5197;48.152;8.590;2023-07-20T01:53:01;5.37;;;2.20;;
10303;SDS011;5197;48.152;8.590;2023-07-20T01:55:28;3.70;;;2.47;;
10303;SDS011;5197;48.152;8.590;2023-07-20T01:57:55;2.63;;;2.43;;
10303;SDS011;5197;48.152;8.590;2023-07-20T02:00:22;2.77;;;2.57;;
10303;SDS011;5197;48.152;8.590;2023-07-20T02:02:50;3.17;;;2.53;;
10303;SDS011;5197;48.152;8.590;2023-07-20T02:05:17;2.80;;;2.60;;
10303;SDS011;5197;48.152;8.590;2023-07-20T02:07:44;4.03;;;2.40;;
10303;SDS011;5197;48.152;8.590;2023-07-20T02:10:11;5.73;;;2.70;;
10303;SDS011;5197;48.152;8.590;2023-07-20T02:12:38;3.53;;;2.40;;
10303;SDS011;5197;48.152;8.590;2023-07-20T02:15:05;6.73;;;2.60;;
10303;SDS011;5197;48.152;8.590;2023-07-20T02:17:32;2.80;;;2.60;;
10303;SDS011;5197;48.152;8.590;2023-07-20T02:19:59;6.33;;;2.73;;
10303;SDS011;5197;48.152;8.590;2023-07-20T02:22:26;3.63;;;2.83;;
10303;SDS011;5197;48.152;8.590;2023-07-20T02:24:53;2.93;;;2.63;;
10303;SDS011;5197;48.152;8.590;2023-07-20T02:27:20;6.03;;;2.80;;
10303;SDS011;5197;48.152;8.590;2023-07-20T02:29:47;4.50;;;2.63;;
10303;SDS011;5197;48.152;8.590;2023-07-20T02:32:14;5.20;;;2.60;;
10303;SDS011;5197;48.152;8.590;2023-07-20T02:34:41;5.13;;;2.50;;
10303;SDS011;5197;48.152;8.590;2023-07-20T02:37:08;5.93;;;2.60;;
10303;SDS011;5197;48.152;8.590;2023-07-20T02:39:37;3.03;;;2.70;;
10303;SDS011;5197;48.152;8.590;2023-07-20T02:42:04;4.17;;;2.70;;
10303;SDS011;5197;48.152;8.590;2023-07-20T02:44:32;5.63;;;2.90;;
10303;SDS011;5197;48.152;8.590;2023-07-20T02:46:58;4.07;;;3.10;;
10303;SDS011;5197;48.152;8.590;2023-07-20T02:49:26;2.80;;;2.60;;
10303;SDS011;5197;48.152;8.590;2023-07-20T02:51:53;6.93;;;2.87;;
10303;SDS011;5197;48.152;8.590;2023-07-20T02:54:20;6.17;;;2.87;;
10303;SDS011;5197;48.152;8.590;2023-07-20T02:56:48;2.80;;;2.60;;
10303;SDS011;5197;48.152;8.590;2023-07-20T02:59:15;2.47;;;2.37;;
10303;SDS011;5197;48.152;8.590;2023-07-20T03:01:41;2.70;;;2.50;;
10303;SDS011;5197;48.152;8.590;2023-07-20T03:04:08;2.43;;;2.23;;
10303;SDS011;5197;48.152;8.590;2023-07-20T03:06:38;4.00;;;3.00;;
10303;SDS011;5197;48.152;8.590;2023-07-20T03:09:05;3.33;;;2.87;;
10303;SDS011;5197;48.152;8.590;2023-07-20T03:11:33;5.33;;;2.50;;
10303;SDS011;5197;48.152;8.590;2023-07-20T03:14:00;3.40;;;2.53;;
10303;SDS011;5197;48.152;8.590;2023-07-20T03:16:27;5.50;;;2.60;;
10303;SDS011;5197;48.152;8.590;2023-07-20T03:18:54;3.00;;;2.70;;
10303;SDS011;5197;48.152;8.590;2023-07-20T03:21:21;4.77;;;2.50;;
10303;SDS011;5197;48.152;8.590;2023-07-20T03:23:48;7.93;;;2.80;;
10303;SDS011;5197;48.152;8.590;2023-07-20T03:26:15;3.33;;;2.73;;
10303;SDS011;5197;48.152;8.590;2023-07-20T03:28:41;3.70;;;2.50;;
10303;SDS011;5197;48.152;8.590;2023-07-20T03:31:08;4.03;;;2.53;;
10303;SDS011;5197;48.152;8.590;2023-07-20T03:33:35;2.60;;;2.40;;
10303;SDS011;5197;48.152;8.590;2023-07-20T03:36:02;3.90;;;2.43;;
10303;SDS011;5197;48.152;8.590;2023-07-20T03:38:29;3.33;;;2.40;;
10303;SDS011;5197;48.152;8.590;2023-07-20T03:40:57;2.70;;;2.50;;
10303;SDS011;5197;48.152;8.590;2023-07-20T03:43:25;2.60;;;2.40;;
10303;SDS011;5197;48.152;8.590;2023-07-20T03:45:53;3.40;;;2.40;;
10303;SDS011;5197;48.152;8.590;2023-07-20T03:48:21;3.13;;;2.40;;
10303;SDS011;5197;48.152;8.590;2023-07-20T03:50:50;3.23;;;2.53;;
10303;SDS011;5197;48.152;8.590;2023-07-20T03:53:19;2.70;;;2.50;;
10303;SDS011;5197;48.152;8.590;2023-07-20T03:55:47;2.50;;;2.30;;
10303;SDS011;5197;48.152;8.590;2023-07-20T03:58:15;5.57;;;2.50;;
10303;SDS011;5197;48.152;8.590;2023-07-20T04:00:44;8.23;;;2.80;;
10303;SDS011;5197;48.152;8.590;2023-07-20T04:03:12;5.07;;;2.70;;
10303;SDS011;5197;48.152;8.590;2023-07-20T04:05:39;4.80;;;2.23;;
10303;SDS011;5197;48.152;8.590;2023-07-20T04:08:06;2.93;;;2.70;;
10303;SDS011;5197;48.152;8.590;2023-07-20T04:10:33;3.43;;;2.40;;
10303;SDS011;5197;48.152;8.590;2023-07-20T04:13:01;3.67;;;2.40;;
10303;SDS011;5197;48.152;8.590;2023-07-20T04:15:27;6.60;;;2.30;;
10303;SDS011;5197;48.152;8.590;2023-07-20T04:17:55;5.17;;;2.80;;
10303;SDS011;5197;48.152;8.590;2023-07-20T04:20:23;4.77;;;2.90;;
10303;SDS011;5197;48.152;8.590;2023-07-20T04:22:50;2.60;;;2.30;;
10303;SDS011;5197;48.152;8.590;2023-07-20T04:25:17;2.80;;;2.30;;
10303;SDS011;5197;48.152;8.590;2023-07-20T04:27:45;2.63;;;2.43;;
10303;SDS011;5197;48.152;8.590;2023-07-20T04:30:12;5.60;;;2.50;;
10303;SDS011;5197;48.152;8.590;2023-07-20T04:32:40;4.30;;;2.30;;
10303;SDS011;5197;48.152;8.590;2023-07-20T04:35:16;3.07;;;2.70;;
10303;SDS011;5197;48.152;8.590;2023-07-20T04:38:01;2.93;;;2.50;;
10303;SDS011;5197;48.152;8.590;2023-07-20T04:40:28;2.70;;;2.50;;
10303;SDS011;5197;48.152;8.590;2023-07-20T04:42:55;4.23;;;2.17;;
10303;SDS011;5197;48.152;8.590;2023-07-20T04:45:22;5.23;;;2.67;;
10303;SDS011;5197;48.152;8.590;2023-07-20T04:47:50;5.17;;;2.70;;
10303;SDS011;5197;48.152;8.590;2023-07-20T04:50:18;3.20;;;2.40;;
10303;SDS011;5197;48.152;8.590;2023-07-20T04:52:45;4.80;;;2.83;;
10303;SDS011;5197;48.152;8.590;2023-07-20T04:55:12;6.17;;;2.73;;
10303;SDS011;5197;48.152;8.590;2023-07-20T04:57:39;9.23;;;2.73;;
10303;SDS011;5197;48.152;8.590;2023-07-20T05:00:06;7.90;;;2.87;;
10303;SDS011;5197;48.152;8.590;2023-07-20T05:02:33;7.33;;;2.90;;
10303;SDS011;5197;48.152;8.590;2023-07-20T05:05:00;7.50;;;2.80;;
10303;SDS011;5197;48.152;8.590;2023-07-20T05:07:28;4.93;;;2.60;;
10303;SDS011;5197;48.152;8.590;2023-07-20T05:09:55;8.33;;;2.70;;
10303;SDS011;5197;48.152;8.590;2023-07-20T05:12:22;3.13;;;2.63;;
10303;SDS011;5197;48.152;8.590;2023-07-20T05:14:49;4.33;;;2.50;;
10303;SDS011;5197;48.152;8.590;2023-07-20T05:17:15;3.90;;;2.50;;
10303;SDS011;5197;48.152;8.590;2023-07-20T05:19:42;4.83;;;2.23;;
10303;SDS011;5197;48.152;8.590;2023-07-20T05:22:10;9.90;;;2.70;;
10303;SDS011;5197;48.152;8.590;2023-07-20T05:24:40;10.07;;;2.90;;
10303;SDS011;5197;48.152;8.590;2023-07-20T05:27:06;5.03;;;2.80;;
10303;SDS011;5197;48.152;8.590;2023-07-20T05:29:33;3.73;;;2.40;;
10303;SDS011;5197;48.152;8.590;2023-07-20T05:32:00;13.40;;;2.93;;
10303;SDS011;5197;48.152;8.590;2023-07-20T05:34:27;16.40;;;3.37;;
10303;SDS011;5197;48.152;8.590;2023-07-20T05:36:54;8.47;;;2.83;;
10303;SDS011;5197;48.152;8.590;2023-07-20T05:39:21;9.80;;;2.93;;
10303;SDS011;5197;48.152;8.590;2023-07-20T05:41:48;6.33;;;2.93;;
10303;SDS011;5197;48.152;8.590;2023-07-20T05:44:15;6.47;;;2.80;;
10303;SDS011;5197;48.152;8.590;2023-07-20T05:46:42;4.80;;;2.27;;
10303;SDS011;5197;48.152;8.590;2023-07-20T05:49:23;4.93;;;2.73;;
10303;SDS011;5197;48.152;8.590;2023-07-20T05:51:50;7.90;;;2.70;;
10303;SDS011;5197;48.152;8.590;2023-07-20T05:54:17;6.80;;;2.93;;
10303;SDS011;5197;48.152;8.590;2023-07-20T05:56:44;5.40;;;2.70;;
10303;SDS011;5197;48.152;8.590;2023-07-20T05:59:12;5.80;;;2.87;;
10303;SDS011;5197;48.152;8.590;2023-07-20T06:01:39;6.20;;;2.53;;
10303;SDS011;5197;48.152;8.590;2023-07-20T06:04:06;6.67;;;2.40;;
10303;SDS011;5197;48.152;8.590;2023-07-20T06:06:33;3.23;;;2.17;;
10303;SDS011;5197;48.152;8.590;2023-07-20T06:09:00;4.10;;;2.40;;
10303;SDS011;5197;48.152;8.590;2023-07-20T06:11:30;7.23;;;2.20;;
10303;SDS011;5197;48.152;8.590;2023-07-20T06:13:57;5.57;;;2.60;;
10303;SDS011;5197;48.152;8.590;2023-07-20T06:16:24;5.20;;;2.60;;
10303;SDS011;5197;48.152;8.590;2023-07-20T06:18:51;3.57;;;2.30;;
10303;SDS011;5197;48.152;8.590;2023-07-20T06:21:18;6.37;;;2.60;;
10303;SDS011;5197;48.152;8.590;2023-07-20T06:23:46;3.00;;;2.07;;
10303;SDS011;5197;48.152;8.590;2023-07-20T06:26:13;4.73;;;1.93;;
10303;SDS011;5197;48.152;8.590;2023-07-20T06:28:40;3.67;;;1.87;;
10303;SDS011;5197;48.152;8.590;2023-07-20T06:31:07;5.37;;;2.47;;
10303;SDS011;5197;48.152;8.590;2023-07-20T06:33:34;4.97;;;2.50;;
10303;SDS011;5197;48.152;8.590;2023-07-20T06:36:01;2.33;;;2.13;;
10303;SDS011;5197;48.152;8.590;2023-07-20T06:38:28;3.43;;;2.17;;
10303;SDS011;5197;48.152;8.590;2023-07-20T06:40:57;3.80;;;2.23;;
10303;SDS011;5197;48.152;8.590;2023-07-20T06:43:45;4.33;;;2.27;;
10303;SDS011;5197;48.152;8.590;2023-07-20T06:46:14;3.13;;;2.33;;
10303;SDS011;5197;48.152;8.590;2023-07-20T06:48:42;5.65;;;2.50;;
10303;SDS011;5197;48.152;8.590;2023-07-20T06:51:11;5.32;;;2.10;;
10303;SDS011;5197;48.152;8.590;2023-07-20T06:53:38;4.55;;;2.50;;
10303;SDS011;5197;48.152;8.590;2023-07-20T06:56:05;3.13;;;2.00;;
10303;SDS011;5197;48.152;8.590;2023-07-20T06:58:32;2.80;;;2.00;;
10303;SDS011;5197;48.152;8.590;2023-07-20T07:01:04;6.75;;;2.00;;
10303;SDS011;5197;48.152;8.590;2023-07-20T07:03:32;5.10;;;1.92;;
10303;SDS011;5197;48.152;8.590;2023-07-20T07:06:00;3.83;;;2.10;;
10303;SDS011;5197;48.152;8.590;2023-07-20T07:08:27;1.98;;;1.80;;
10303;SDS011;5197;48.152;8.590;2023-07-20T07:10:54;4.25;;;1.70;;
10303;SDS011;5197;48.152;8.590;2023-07-20T07:13:21;3.72;;;1.90;;
10303;SDS011;5197;48.152;8.590;2023-07-20T07:15:50;4.60;;;2.08;;
10303;SDS011;5197;48.152;8.590;2023-07-20T07:18:18;2.20;;;1.98;;
10303;SDS011;5197;48.152;8.590;2023-07-20T07:20:53;7.40;;;2.17;;
10303;SDS011;5197;48.152;8.590;2023-07-20T07:23:20;2.72;;;2.05;;
10303;SDS011;5197;48.152;8.590;2023-07-20T07:25:47;6.15;;;2.00;;
10303;SDS011;5197;48.152;8.590;2023-07-20T07:28:14;2.10;;;1.65;;
10303;SDS011;5197;48.152;8.590;2023-07-20T07:30:41;1.83;;;1.63;;
10303;SDS011;5197;48.152;8.590;2023-07-20T07:33:08;1.85;;;1.67;;
10303;SDS011;5197;48.152;8.590;2023-07-20T07:35:36;4.55;;;1.90;;
10303;SDS011;5197;48.152;8.590;2023-07-20T07:38:03;5.38;;;1.58;;
10303;SDS011;5197;48.152;8.590;2023-07-20T07:40:50;2.08;;;1.73;;
10303;SDS011;5197;48.152;8.590;2023-07-20T07:43:17;3.95;;;1.77;;
10303;SDS011;5197;48.152;8.590;2023-07-20T07:45:44;4.35;;;2.15;;
10303;SDS011;5197;48.152;8.590;2023-07-20T07:48:11;5.55;;;2.22;;
10303;SDS011;5197;48.152;8.590;2023-07-20T07:50:38;3.47;;;1.75;;
10303;SDS011;5197;48.152;8.590;2023-07-20T07:53:09;2.42;;;1.50;;
10303;SDS011;5197;48.152;8.590;2023-07-20T07:55:36;1.83;;;1.70;;
10303;SDS011;5197;48.152;8.590;2023-07-20T07:58:03;2.58;;;1.80;;
10303;SDS011;5197;48.152;8.590;2023-07-20T08:00:30;2.00;;;1.58;;
10303;SDS011;5197;48.152;8.590;2023-07-20T08:02:57;2.00;;;1.80;;
10303;SDS011;5197;48.152;8.590;2023-07-20T08:05:25;2.40;;;2.00;;
10303;SDS011;5197;48.152;8.590;2023-07-20T08:07:52;2.15;;;1.80;;
10303;SDS011;5197;48.152;8.590;2023-07-20T08:10:19;4.47;;;1.90;;
10303;SDS011;5197;48.152;8.590;2023-07-20T08:12:46;2.78;;;1.70;;
10303;SDS011;5197;48.152;8.590;2023-07-20T08:15:13;3.20;;;1.95;;
10303;SDS011;5197;48.152;8.590;2023-07-20T08:17:41;2.88;;;1.80;;
10303;SDS011;5197;48.152;8.590;2023-07-20T08:20:12;2.13;;;1.90;;
10303;SDS011;5197;48.152;8.590;2023-07-20T08:22:39;5.25;;;2.08;;
10303;SDS011;5197;48.152;8.590;2023-07-20T08:25:07;1.80;;;1.70;;
10303;SDS011;5197;48.152;8.590;2023-07-20T08:27:34;2.58;;;1.90;;
10303;SDS011;5197;48.152;8.590;2023-07-20T08:30:02;1.67;;;1.55;;
10303;SDS011;5197;48.152;8.590;2023-07-20T08:32:30;3.10;;;1.92;;
10303;SDS011;5197;48.152;8.590;2023-07-20T08:34:59;1.75;;;1.50;;
10303;SDS011;5197;48.152;8.590;2023-07-20T08:37:26;2.15;;;1.52;;
10303;SDS011;5197;48.152;8.590;2023-07-20T08:39:52;3.35;;;1.70;;
10303;SDS011;5197;48.152;8.590;2023-07-20T08:42:19;3.13;;;1.38;;
10303;SDS011;5197;48.152;8.590;2023-07-20T08:44:48;2.97;;;2.17;;
10303;SDS011;5197;48.152;8.590;2023-07-20T08:47:18;1.70;;;1.52;;
10303;SDS011;5197;48.152;8.590;2023-07-20T08:49:48;3.97;;;1.90;;
10303;SDS011;5197;48.152;8.590;2023-07-20T08:52:15;4.72;;;1.75;;
10303;SDS011;5197;48.152;8.590;2023-07-20T08:54:43;3.10;;;1.30;;
10303;SDS011;5197;48.152;8.590;2023-07-20T08:57:11;2.78;;;1.73;;
10303;SDS011;5197;48.152;8.590;2023-07-20T08:59:43;2.95;;;1.90;;
10303;SDS011;5197;48.152;8.590;2023-07-20T09:02:12;2.53;;;1.85;;
10303;SDS011;5197;48.152;8.590;2023-07-20T09:04:45;3.85;;;1.85;;
10303;SDS011;5197;48.152;8.590;2023-07-20T09:07:12;3.03;;;1.77;;
10303;SDS011;5197;48.152;8.590;2023-07-20T09:09:41;2.08;;;1.45;;
10303;SDS011;5197;48.152;8.590;2023-07-20T09:12:14;4.00;;;1.27;;
10303;SDS011;5197;48.152;8.590;2023-07-20T09:14:45;3.10;;;1.40;;
10303;SDS011;5197;48.152;8.590;2023-07-20T09:17:15;1.70;;;1.60;;
10303;SDS011;5197;48.152;8.590;2023-07-20T09:19:46;4.03;;;1.60;;
10303;SDS011;5197;48.152;8.590;2023-07-20T09:22:14;2.60;;;1.60;;
10303;SDS011;5197;48.152;8.590;2023-07-20T09:24:41;1.13;;;1.02;;
10303;SDS011;5197;48.152;8.590;2023-07-20T09:27:10;3.13;;;1.60;;
10303;SDS011;5197;48.152;8.590;2023-07-20T09:29:50;5.95;;;1.95;;
10303;SDS011;5197;48.152;8.590;2023-07-20T09:32:21;1.73;;;1.58;;
10303;SDS011;5197;48.152;8.590;2023-07-20T09:34:50;2.17;;;1.60;;
10303;SDS011;5197;48.152;8.590;2023-07-20T09:37:21;2.55;;;1.45;;
10303;SDS011;5197;48.152;8.590;2023-07-20T09:39:51;1.40;;;1.23;;
10303;SDS011;5197;48.152;8.590;2023-07-20T09:42:22;1.88;;;1.77;;
10303;SDS011;5197;48.152;8.590;2023-07-20T09:44:54;3.05;;;1.50;;
10303;SDS011;5197;48.152;8.590;2023-07-20T09:47:22;4.60;;;1.63;;
10303;SDS011;5197;48.152;8.590;2023-07-20T09:49:59;2.25;;;1.25;;
10303;SDS011;5197;48.152;8.590;2023-07-20T09:52:29;2.63;;;1.88;;
10303;SDS011;5197;48.152;8.590;2023-07-20T09:55:00;2.55;;;1.50;;
10303;SDS011;5197;48.152;8.590;2023-07-20T09:57:28;2.65;;;1.30;;
10303;SDS011;5197;48.152;8.590;2023-07-20T09:59:57;2.95;;;1.63;;
10303;SDS011;5197;48.152;8.590;2023-07-20T10:02:46;2.30;;;1.48;;
10303;SDS011;5197;48.152;8.590;2023-07-20T10:05:13;1.90;;;1.52;;
10303;SDS011;5197;48.152;8.590;2023-07-20T10:07:51;2.45;;;1.70;;
10303;SDS011;5197;48.152;8.590;2023-07-20T10:10:40;4.57;;;1.80;;
10303;SDS011;5197;48.152;8.590;2023-07-20T10:13:10;3.22;;;1.83;;
10303;SDS011;5197;48.152;8.590;2023-07-20T10:15:46;1.63;;;1.52;;
10303;SDS011;5197;48.152;8.590;2023-07-20T10:18:30;1.45;;;1.35;;
10303;SDS011;5197;48.152;8.590;2023-07-20T10:21:18;1.80;;;1.40;;
10303;SDS011;5197;48.152;8.590;2023-07-20T10:23:52;1.50;;;1.50;;
10303;SDS011;5197;48.152;8.590;2023-07-20T10:26:20;4.10;;;1.70;;
10303;SDS011;5197;48.152;8.590;2023-07-20T10:28:49;2.15;;;1.50;;
10303;SDS011;5197;48.152;8.590;2023-07-20T10:31:16;2.80;;;1.65;;
10303;SDS011;5197;48.152;8.590;2023-07-20T10:33:44;1.50;;;1.40;;
10303;SDS011;5197;48.152;8.590;2023-07-20T10:36:12;3.42;;;1.55;;
10303;SDS011;5197;48.152;8.590;2023-07-20T10:38:43;4.82;;;1.90;;
10303;SDS011;5197;48.152;8.590;2023-07-20T10:41:20;3.78;;;1.67;;
10303;SDS011;5197;48.152;8.590;2023-07-20T10:44:01;4.35;;;1.52;;
10303;SDS011;5197;48.152;8.590;2023-07-20T10:46:41;3.00;;;1.50;;
10303;SDS011;5197;48.152;8.590;2023-07-20T10:49:12;1.98;;;1.50;;
10303;SDS011;5197;48.152;8.590;2023-07-20T10:51:45;1.77;;;1.67;;
10303;SDS011;5197;48.152;8.590;2023-07-20T10:56:45;2.13;;;1.92;;
10303;SDS011;5197;48.152;8.590;2023-07-20T10:59:36;1.70;;;1.60;;
10303;SDS011;5197;48.152;8.590;2023-07-20T11:02:06;3.65;;;1.70;;
10303;SDS011;5197;48.152;8.590;2023-07-20T11:04:38;1.60;;;1.50;;
10303;SDS011;5197;48.152;8.590;2023-07-20T11:07:07;1.33;;;1.30;;
10303;SDS011;5197;48.152;8.590;2023-07-20T11:09:37;1.55;;;1.33;;
10303;SDS011;5197;48.152;8.590;2023-07-20T11:12:12;2.50;;;1.70;;
10303;SDS011;5197;48.152;8.590;2023-07-20T11:14:41;5.57;;;1.42;;
10303;SDS011;5197;48.152;8.590;2023-07-20T11:17:12;1.92;;;1.40;;
10303;SDS011;5197;48.152;8.590;2023-07-20T11:19:40;2.30;;;1.42;;
10303;SDS011;5197;48.152;8.590;2023-07-20T11:22:10;1.50;;;1.40;;
10303;SDS011;5197;48.152;8.590;2023-07-20T11:24:38;3.08;;;1.58;;
10303;SDS011;5197;48.152;8.590;2023-07-20T11:27:06;1.65;;;1.55;;
10303;SDS011;5197;48.152;8.590;2023-07-20T11:29:34;5.75;;;1.70;;
10303;SDS011;5197;48.152;8.590;2023-07-20T11:32:03;1.30;;;1.30;;
10303;SDS011;5197;48.152;8.590;2023-07-20T11:34:33;4.38;;;1.02;;
10303;SDS011;5197;48.152;8.590;2023-07-20T11:37:01;1.90;;;1.60;;
10303;SDS011;5197;48.152;8.590;2023-07-20T11:39:32;1.50;;;1.40;;
10303;SDS011;5197;48.152;8.590;2023-07-20T11:42:00;2.45;;;1.70;;
10303;SDS011;5197;48.152;8.590;2023-07-20T11:44:27;1.00;;;1.00;;
10303;SDS011;5197;48.152;8.590;2023-07-20T11:47:00;1.50;;;1.40;;
10303;SDS011;5197;48.152;8.590;2023-07-20T11:49:38;5.47;;;1.45;;
10303;SDS011;5197;48.152;8.590;2023-07-20T11:52:10;1.60;;;1.48;;
10303;SDS011;5197;48.152;8.590;2023-07-20T11:54:42;1.67;;;1.58;;
10303;SDS011;5197;48.152;8.590;2023-07-20T11:57:18;1.20;;;1.05;;
10303;SDS011;5197;48.152;8.590;2023-07-20T12:00:00;2.35;;;1.70;;
10303;SDS011;5197;48.152;8.590;2023-07-20T12:02:35;1.55;;;1.45;;
10303;SDS011;5197;48.152;8.590;2023-07-20T12:05:02;1.67;;;0.98;;
10303;SDS011;5197;48.152;8.590;2023-07-20T12:07:34;6.53;;;1.40;;
10303;SDS011;5197;48.152;8.590;2023-07-20T12:10:04;4.47;;;1.63;;
10303;SDS011;5197;48.152;8.590;2023-07-20T12:12:35;2.70;;;1.60;;
10303;SDS011;5197;48.152;8.590;2023-07-20T12:15:21;2.03;;;1.67;;
10303;SDS011;5197;48.152;8.590;2023-07-20T12:17:50;1.40;;;1.30;;
10303;SDS011;5197;48.152;8.590;2023-07-20T12:20:58;1.73;;;1.63;;
10303;SDS011;5197;48.152;8.590;2023-07-20T12:23:24;2.05;;;1.73;;
10303;SDS011;5197;48.152;8.590;2023-07-20T12:25:51;1.70;;;1.60;;
10303;SDS011;5197;48.152;8.590;2023-07-20T12:28:19;4.13;;;1.42;;
10303;SDS011;5197;48.152;8.590;2023-07-20T12:30:47;1.50;;;1.40;;
10303;SDS011;5197;48.152;8.590;2023-07-20T12:33:22;2.15;;;1.45;;
10303;SDS011;5197;48.152;8.590;2023-07-20T12:35:49;1.30;;;1.30;;
10303;SDS011;5197;48.152;8.590;2023-07-20T12:38:17;2.08;;;1.52;;
10303;SDS011;5197;48.152;8.590;2023-07-20T12:40:44;2.70;;;1.27;;
10303;SDS011;5197;48.152;8.590;2023-07-20T12:43:11;2.47;;;1.17;;
10303;SDS011;5197;48.152;8.590;2023-07-20T12:45:38;1.67;;;1.58;;
10303;SDS011;5197;48.152;8.590;2023-07-20T12:48:05;1.40;;;1.30;;
10303;SDS011;5197;48.152;8.590;2023-07-20T12:50:32;1.50;;;1.40;;
10303;SDS011;5197;48.152;8.590;2023-07-20T12:52:59;1.73;;;1.30;;
10303;SDS011;5197;48.152;8.590;2023-07-20T12:55:26;1.65;;;1.55;;
10303;SDS011;5197;48.152;8.590;2023-07-20T12:57:53;1.50;;;1.40;;
10303;SDS011;5197;48.152;8.590;2023-07-20T13:00:19;1.30;;;1.30;;
10303;SDS011;5197;48.152;8.590;2023-07-20T13:02:49;1.25;;;1.10;;
10303;SDS011;5197;48.152;8.590;2023-07-20T13:05:35;1.70;;;1.60;;
10303;SDS011;5197;48.152;8.590;2023-07-20T13:08:05;2.65;;;1.23;;
10303;SDS011;5197;48.152;8.590;2023-07-20T13:10:35;1.83;;;1.23;;
10303;SDS011;5197;48.152;8.590;2023-07-20T13:13:02;1.63;;;1.40;;
10303;SDS011;5197;48.152;8.590;2023-07-20T13:15:29;1.60;;;1.50;;
10303;SDS011;5197;48.152;8.590;2023-07-20T13:17:58;1.38;;;1.30;;
10303;SDS011;5197;48.152;8.590;2023-07-20T13:20:26;2.00;;;1.50;;
10303;SDS011;5197;48.152;8.590;2023-07-20T13:22:54;3.90;;;1.65;;
10303;SDS011;5197;48.152;8.590;2023-07-20T13:25:21;2.25;;;1.77;;
10303;SDS011;5197;48.152;8.590;2023-07-20T13:27:48;5.20;;;1.65;;
10303;SDS011;5197;48.152;8.590;2023-07-20T13:30:15;1.73;;;1.63;;
10303;SDS011;5197;48.152;8.590;2023-07-20T13:32:43;2.60;;;1.52;;
10303;SDS011;5197;48.152;8.590;2023-07-20T13:35:11;1.50;;;1.50;;
10303;SDS011;5197;48.152;8.590;2023-07-20T13:37:38;2.03;;;1.40;;
10303;SDS011;5197;48.152;8.590;2023-07-20T13:40:06;1.35;;;1.25;;
10303;SDS011;5197;48.152;8.590;2023-07-20T13:42:38;1.67;;;1.48;;
10303;SDS011;5197;48.152;8.590;2023-07-20T13:45:07;1.48;;;1.45;;
10303;SDS011;5197;48.152;8.590;2023-07-20T13:47:34;1.08;;;1.08;;
10303;SDS011;5197;48.152;8.590;2023-07-20T13:50:02;1.55;;;1.45;;
10303;SDS011;5197;48.152;8.590;2023-07-20T13:52:30;1.45;;;1.40;;
10303;SDS011;5197;48.152;8.590;2023-07-20T13:55:00;1.90;;;1.80;;
10303;SDS011;5197;48.152;8.590;2023-07-20T13:57:30;1.58;;;1.45;;
10303;SDS011;5197;48.152;8.590;2023-07-20T14:00:01;1.05;;;1.05;;
10303;SDS011;5197;48.152;8.590;2023-07-20T14:02:30;1.60;;;1.50;;
10303;SDS011;5197;48.152;8.590;2023-07-20T14:05:00;1.55;;;1.45;;
10303;SDS011;5197;48.152;8.590;2023-07-20T14:07:29;2.33;;;1.50;;
10303;SDS011;5197;48.152;8.590;2023-07-20T14:09:56;1.40;;;1.35;;
10303;SDS011;5197;48.152;8.590;2023-07-20T14:12:26;1.67;;;1.30;;
10303;SDS011;5197;48.152;8.590;2023-07-20T14:14:54;2.30;;;1.50;;
10303;SDS011;5197;48.152;8.590;2023-07-20T14:17:22;3.25;;;1.40;;
10303;SDS011;5197;48.152;8.590;2023-07-20T14:19:50;3.75;;;1.67;;
10303;SDS011;5197;48.152;8.590;2023-07-20T14:22:17;1.98;;;1.60;;
10303;SDS011;5197;48.152;8.590;2023-07-20T14:24:45;1.60;;;1.50;;
10303;SDS011;5197;48.152;8.590;2023-07-20T14:27:12;1.85;;;1.50;;
10303;SDS011;5197;48.152;8.590;2023-07-20T14:29:39;1.55;;;1.45;;
10303;SDS011;5197;48.152;8.590;2023-07-20T14:32:06;1.55;;;1.48;;
10303;SDS011;5197;48.152;8.590;2023-07-20T14:34:33;2.28;;;2.03;;
10303;SDS011;5197;48.152;8.590;2023-07-20T14:37:05;1.58;;;1.48;;
10303;SDS011;5197;48.152;8.590;2023-07-20T14:39:32;1.92;;;1.80;;
10303;SDS011;5197;48.152;8.590;2023-07-20T14:41:59;1.50;;;1.40;;
10303;SDS011;5197;48.152;8.590;2023-07-20T14:44:26;2.63;;;1.48;;
10303;SDS011;5197;48.152;8.590;2023-07-20T14:46:53;1.77;;;1.50;;
10303;SDS011;5197;48.152;8.590;2023-07-20T14:49:39;1.45;;;1.35;;
10303;SDS011;5197;48.152;8.590;2023-07-20T14:52:06;1.75;;;1.40;;
10303;SDS011;5197;48.152;8.590;2023-07-20T14:54:36;2.15;;;1.48;;
10303;SDS011;5197;48.152;8.590;2023-07-20T14:57:03;1.30;;;1.20;;
10303;SDS011;5197;48.152;8.590;2023-07-20T14:59:31;1.90;;;1.50;;
10303;SDS011;5197;48.152;8.590;2023-07-20T15:01:57;1.83;;;1.55;;
10303;SDS011;5197;48.152;8.590;2023-07-20T15:04:28;2.38;;;1.42;;
10303;SDS011;5197;48.152;8.590;2023-07-20T15:06:55;1.40;;;1.30;;
10303;SDS011;5197;48.152;8.590;2023-07-20T15:09:23;1.50;;;1.40;;
10303;SDS011;5197;48.152;8.590;2023-07-20T15:11:50;3.90;;;1.48;;
10303;SDS011;5197;48.152;8.590;2023-07-20T15:14:16;1.50;;;1.50;;
10303;SDS011;5197;48.152;8.590;2023-07-20T15:16:43;4.50;;;2.25;;
10303;SDS011;5197;48.152;8.590;2023-07-20T15:19:14;3.72;;;1.83;;
10303;SDS011;5197;48.152;8.590;2023-07-20T15:21:42;1.67;;;1.50;;